sensor_id;sensor_type;location;lat;lon;timestamp;pressure;altitude;pressure_sealevel;temperature;humidity
46714;BME280;32445;51.376;10.874;2023-03-01T00:00:34;100811.44;;;-0.79;45.07
46714;BME280;32445;51.376;10.874;2023-03-01T00:03:35;100797.69;;;-0.82;45.12
46714;BME280;32445;51.376;10.874;2023-03-01T00:06:35;100794.97;;;-0.87;45.12
46714;BME280;32445;51.376;10.874;2023-03-01T00:09:37;100798.25;;;-0.90;44.81
46714;BME280;32445;51.376;10.874;2023-03-01T00:12:37;100792.13;;;-0.93;45.00
46714;BME280;32445;51.376;10.874;2023-03-01T00:15:39;100802.22;;;-0.96;45.27
46714;BME280;32445;51.376;10.874;2023-03-01T00:18:40;100794.44;;;-0.99;45.20
46714;BME280;32445;51.376;10.874;2023-03-01T00:21:41;100796.00;;;-1.03;45.30
46714;BME280;32445;51.376;10.874;2023-03-01T00:24:44;100800.94;;;-1.06;45.61
46714;BME280;32445;51.376;10.874;2023-03-01T00:27:46;100799.09;;;-1.10;45.45
46714;BME280;32445;51.376;10.874;2023-03-01T00:30:47;100792.25;;;-1.11;45.30
46714;BME280;32445;51.376;10.874;2023-03-01T00:33:48;100788.69;;;-1.15;45.00
46714;BME280;32445;51.376;10.874;2023-03-01T00:36:50;100787.66;;;-1.20;45.08
46714;BME280;32445;51.376;10.874;2023-03-01T00:39:51;100784.09;;;-1.24;45.05
46714;BME280;32445;51.376;10.874;2023-03-01T00:42:51;100775.53;;;-1.26;45.53
46714;BME280;32445;51.376;10.874;2023-03-01T00:45:52;100782.97;;;-1.30;45.62
46714;BME280;32445;51.376;10.874;2023-03-01T00:48:53;100788.81;;;-1.33;45.59
46714;BME280;32445;51.376;10.874;2023-03-01T00:51:53;100782.69;;;-1.36;45.84
46714;BME280;32445;51.376;10.874;2023-03-01T00:54:54;100791.06;;;-1.39;45.55
46714;BME280;32445;51.376;10.874;2023-03-01T00:57:54;100788.34;;;-1.44;45.69
46714;BME280;32445;51.376;10.874;2023-03-01T01:00:54;100785.66;;;-1.47;45.51
46714;BME280;32445;51.376;10.874;2023-03-01T01:04:01;100778.69;;;-1.51;46.02
46714;BME280;32445;51.376;10.874;2023-03-01T01:07:09;100759.94;;;-1.53;45.83
46714;BME280;32445;51.376;10.874;2023-03-01T01:10:10;100761.53;;;-1.55;45.89
46714;BME280;32445;51.376;10.874;2023-03-01T01:13:19;100748.59;;;-1.60;45.70
46714;BME280;32445;51.376;10.874;2023-03-01T01:16:21;100753.56;;;-1.63;45.66
46714;BME280;32445;51.376;10.874;2023-03-01T01:19:22;100742.47;;;-1.65;45.84
46714;BME280;32445;51.376;10.874;2023-03-01T01:22:23;100741.50;;;-1.67;45.94
46714;BME280;32445;51.376;10.874;2023-03-01T01:25:23;100743.94;;;-1.70;45.81
46714;BME280;32445;51.376;10.874;2023-03-01T01:28:27;100742.91;;;-1.74;46.03
46714;BME280;32445;51.376;10.874;2023-03-01T01:31:28;100747.00;;;-1.77;45.68
46714;BME280;32445;51.376;10.874;2023-03-01T01:34:32;100744.47;;;-1.77;46.00
46714;BME280;32445;51.376;10.874;2023-03-01T01:37:34;100724.72;;;-1.83;45.30
46714;BME280;32445;51.376;10.874;2023-03-01T01:40:44;100733.06;;;-1.85;45.66
46714;BME280;32445;51.376;10.874;2023-03-01T01:47:13;100734.41;;;-1.94;45.82
46714;BME280;32445;51.376;10.874;2023-03-01T01:50:17;100730.13;;;-1.95;45.94
46714;BME280;32445;51.376;10.874;2023-03-01T01:53:19;100733.47;;;-1.96;46.13
46714;BME280;32445;51.376;10.874;2023-03-01T01:56:21;100736.03;;;-1.96;45.91
46714;BME280;32445;51.376;10.874;2023-03-01T01:59:28;100728.31;;;-1.97;46.31
46714;BME280;32445;51.376;10.874;2023-03-01T02:02:30;100719.00;;;-1.97;46.23
46714;BME280;32445;51.376;10.874;2023-03-01T02:05:51;100713.00;;;-1.99;46.69
46714;BME280;32445;51.376;10.874;2023-03-01T02:08:55;100709.78;;;-1.95;46.46
46714;BME280;32445;51.376;10.874;2023-03-01T02:11:58;100711.50;;;-1.94;46.59
46714;BME280;32445;51.376;10.874;2023-03-01T02:14:59;100697.97;;;-1.93;46.57
46714;BME280;32445;51.376;10.874;2023-03-01T02:18:01;100692.88;;;-1.93;46.42
46714;BME280;32445;51.376;10.874;2023-03-01T02:24:32;100686.94;;;-1.93;46.39
46714;BME280;32445;51.376;10.874;2023-03-01T02:27:46;100695.44;;;-1.93;46.71
46714;BME280;32445;51.376;10.874;2023-03-01T02:30:50;100695.44;;;-1.93;46.47
46714;BME280;32445;51.376;10.874;2023-03-01T02:34:15;100692.75;;;-1.96;46.35
46714;BME280;32445;51.376;10.874;2023-03-01T02:37:17;100694.38;;;-1.98;46.34
46714;BME280;32445;51.376;10.874;2023-03-01T02:40:24;100693.50;;;-1.98;46.52
46714;BME280;32445;51.376;10.874;2023-03-01T02:43:29;100691.63;;;-2.02;46.59
46714;BME280;32445;51.376;10.874;2023-03-01T02:46:30;100689.91;;;-2.03;46.53
46714;BME280;32445;51.376;10.874;2023-03-01T02:49:32;100692.34;;;-2.05;46.67
46714;BME280;32445;51.376;10.874;2023-03-01T02:52:47;100687.94;;;-2.09;46.76
46714;BME280;32445;51.376;10.874;2023-03-01T02:55:53;100689.59;;;-2.10;46.44
46714;BME280;32445;51.376;10.874;2023-03-01T02:58:54;100685.25;;;-2.12;46.52
46714;BME280;32445;51.376;10.874;2023-03-01T03:01:54;100676.75;;;-2.13;46.65
46714;BME280;32445;51.376;10.874;2023-03-01T03:04:54;100670.75;;;-2.15;46.64
46714;BME280;32445;51.376;10.874;2023-03-01T03:07:56;100675.75;;;-2.16;46.76
46714;BME280;32445;51.376;10.874;2023-03-01T03:10:56;100676.56;;;-2.17;46.64
46714;BME280;32445;51.376;10.874;2023-03-01T03:13:57;100673.13;;;-2.18;46.67
46714;BME280;32445;51.376;10.874;2023-03-01T03:16:57;100677.34;;;-2.18;46.62
46714;BME280;32445;51.376;10.874;2023-03-01T03:19:58;100670.56;;;-2.18;47.18
46714;BME280;32445;51.376;10.874;2023-03-01T03:22:58;100666.31;;;-2.19;46.97
46714;BME280;32445;51.376;10.874;2023-03-01T03:25:58;100672.19;;;-2.20;47.16
46714;BME280;32445;51.376;10.874;2023-03-01T03:28:59;100673.81;;;-2.22;46.78
46714;BME280;32445;51.376;10.874;2023-03-01T03:31:59;100686.47;;;-2.23;47.23
46714;BME280;32445;51.376;10.874;2023-03-01T03:35:00;100689.75;;;-2.26;47.12
46714;BME280;32445;51.376;10.874;2023-03-01T03:38:05;100676.88;;;-2.29;47.14
46714;BME280;32445;51.376;10.874;2023-03-01T03:41:16;100680.22;;;-2.30;46.85
46714;BME280;32445;51.376;10.874;2023-03-01T03:44:19;100673.31;;;-2.33;47.00
46714;BME280;32445;51.376;10.874;2023-03-01T03:47:19;100668.91;;;-2.37;46.94
46714;BME280;32445;51.376;10.874;2023-03-01T03:50:20;100662.88;;;-2.39;46.98
46714;BME280;32445;51.376;10.874;2023-03-01T03:53:21;100664.41;;;-2.42;47.21
46714;BME280;32445;51.376;10.874;2023-03-01T03:56:22;100663.47;;;-2.45;47.09
46714;BME280;32445;51.376;10.874;2023-03-01T03:59:26;100667.59;;;-2.47;47.38
46714;BME280;32445;51.376;10.874;2023-03-01T04:02:26;100667.47;;;-2.50;46.74
46714;BME280;32445;51.376;10.874;2023-03-01T04:05:27;100669.88;;;-2.53;47.06
46714;BME280;32445;51.376;10.874;2023-03-01T04:08:28;100663.88;;;-2.55;47.16
46714;BME280;32445;51.376;10.874;2023-03-01T04:11:29;100656.09;;;-2.58;46.87
46714;BME280;32445;51.376;10.874;2023-03-01T04:14:29;100648.31;;;-2.61;46.79
46714;BME280;32445;51.376;10.874;2023-03-01T04:17:29;100651.63;;;-2.64;46.93
46714;BME280;32445;51.376;10.874;2023-03-01T04:20:32;100647.25;;;-2.66;47.16
46714;BME280;32445;51.376;10.874;2023-03-01T04:23:34;100648.91;;;-2.67;47.37
46714;BME280;32445;51.376;10.874;2023-03-01T04:26:35;100650.47;;;-2.70;47.62
46714;BME280;32445;51.376;10.874;2023-03-01T04:29:35;100641.81;;;-2.74;47.30
46714;BME280;32445;51.376;10.874;2023-03-01T04:32:35;100647.72;;;-2.75;47.24
46714;BME280;32445;51.376;10.874;2023-03-01T04:35:37;100654.38;;;-2.77;46.75
46714;BME280;32445;51.376;10.874;2023-03-01T04:38:38;100661.06;;;-2.79;47.24
46714;BME280;32445;51.376;10.874;2023-03-01T04:41:40;100652.50;;;-2.81;47.12
46714;BME280;32445;51.376;10.874;2023-03-01T04:44:41;100644.72;;;-2.84;46.98
46714;BME280;32445;51.376;10.874;2023-03-01T04:47:43;100649.75;;;-2.86;46.87
46714;BME280;32445;51.376;10.874;2023-03-01T04:50:44;100657.28;;;-2.87;47.03
46714;BME280;32445;51.376;10.874;2023-03-01T04:53:44;100650.47;;;-2.88;47.19
46714;BME280;32445;51.376;10.874;2023-03-01T04:56:45;100655.47;;;-2.90;46.67
46714;BME280;32445;51.376;10.874;2023-03-01T04:59:45;100656.19;;;-2.92;47.30
46714;BME280;32445;51.376;10.874;2023-03-01T05:05:58;100651.69;;;-2.98;47.01
46714;BME280;32445;51.376;10.874;2023-03-01T05:08:59;100640.69;;;-2.99;46.83
46714;BME280;32445;51.376;10.874;2023-03-01T05:12:00;100649.09;;;-3.00;47.24
46714;BME280;32445;51.376;10.874;2023-03-01T05:15:00;100642.13;;;-3.04;47.08
46714;BME280;32445;51.376;10.874;2023-03-01T05:18:01;100639.50;;;-3.05;47.16
46714;BME280;32445;51.376;10.874;2023-03-01T05:24:04;100644.38;;;-3.10;46.87
46714;BME280;32445;51.376;10.874;2023-03-01T05:27:05;100639.22;;;-3.11;46.79
46714;BME280;32445;51.376;10.874;2023-03-01T05:30:07;100643.38;;;-3.14;47.10
46714;BME280;32445;51.376;10.874;2023-03-01T05:33:13;100639.88;;;-3.16;47.16
46714;BME280;32445;51.376;10.874;2023-03-01T05:36:13;100639.81;;;-3.17;47.37
46714;BME280;32445;51.376;10.874;2023-03-01T05:39:14;100632.13;;;-3.19;47.17
46714;BME280;32445;51.376;10.874;2023-03-01T05:42:14;100628.66;;;-3.21;47.27
46714;BME280;32445;51.376;10.874;2023-03-01T05:45:16;100635.31;;;-3.23;47.22
46714;BME280;32445;51.376;10.874;2023-03-01T05:48:17;100635.16;;;-3.26;47.16
46714;BME280;32445;51.376;10.874;2023-03-01T05:51:19;100630.81;;;-3.28;47.08
46714;BME280;32445;51.376;10.874;2023-03-01T05:54:20;100636.72;;;-3.29;47.51
46714;BME280;32445;51.376;10.874;2023-03-01T05:57:21;100635.66;;;-3.33;47.62
46714;BME280;32445;51.376;10.874;2023-03-01T06:00:22;100643.28;;;-3.33;47.47
46714;BME280;32445;51.376;10.874;2023-03-01T06:03:22;100641.47;;;-3.36;47.63
46714;BME280;32445;51.376;10.874;2023-03-01T06:06:23;100637.19;;;-3.37;47.59
46714;BME280;32445;51.376;10.874;2023-03-01T06:09:24;100641.41;;;-3.37;47.21
46714;BME280;32445;51.376;10.874;2023-03-01T06:12:26;100649.00;;;-3.37;47.28
46714;BME280;32445;51.376;10.874;2023-03-01T06:15:26;100638.78;;;-3.39;47.61
46714;BME280;32445;51.376;10.874;2023-03-01T06:18:27;100635.38;;;-3.39;47.38
46714;BME280;32445;51.376;10.874;2023-03-01T06:21:27;100632.78;;;-3.41;47.53
46714;BME280;32445;51.376;10.874;2023-03-01T06:24:27;100634.50;;;-3.40;47.51
46714;BME280;32445;51.376;10.874;2023-03-01T06:27:28;100635.31;;;-3.41;47.72
46714;BME280;32445;51.376;10.874;2023-03-01T06:30:29;100642.03;;;-3.41;47.63
46714;BME280;32445;51.376;10.874;2023-03-01T06:33:29;100635.31;;;-3.41;48.04
46714;BME280;32445;51.376;10.874;2023-03-01T06:36:30;100643.72;;;-3.42;47.99
46714;BME280;32445;51.376;10.874;2023-03-01T06:39:31;100652.13;;;-3.43;48.01
46714;BME280;32445;51.376;10.874;2023-03-01T06:42:31;100644.50;;;-3.43;47.75
46714;BME280;32445;51.376;10.874;2023-03-01T06:45:32;100647.94;;;-3.42;47.96
46714;BME280;32445;51.376;10.874;2023-03-01T06:48:33;100654.72;;;-3.41;47.48
46714;BME280;32445;51.376;10.874;2023-03-01T06:51:33;100648.00;;;-3.41;47.67
46714;BME280;32445;51.376;10.874;2023-03-01T06:54:34;100649.72;;;-3.40;47.89
46714;BME280;32445;51.376;10.874;2023-03-01T06:57:34;100647.44;;;-3.35;47.88
46714;BME280;32445;51.376;10.874;2023-03-01T07:00:34;100649.22;;;-3.33;48.04
46714;BME280;32445;51.376;10.874;2023-03-01T07:03:35;100639.31;;;-3.28;47.68
46714;BME280;32445;51.376;10.874;2023-03-01T07:06:35;100646.19;;;-3.25;48.03
46714;BME280;32445;51.376;10.874;2023-03-01T07:09:35;100641.41;;;-3.19;48.28
46714;BME280;32445;51.376;10.874;2023-03-01T07:12:36;100643.31;;;-3.15;47.83
46714;BME280;32445;51.376;10.874;2023-03-01T07:15:36;100643.59;;;-3.09;48.10
46714;BME280;32445;51.376;10.874;2023-03-01T07:18:37;100644.53;;;-3.07;48.17
46714;BME280;32445;51.376;10.874;2023-03-01T07:21:37;100648.81;;;-3.06;48.71
46714;BME280;32445;51.376;10.874;2023-03-01T07:24:38;100644.66;;;-3.04;48.74
46714;BME280;32445;51.376;10.874;2023-03-01T07:27:39;100635.66;;;-2.97;48.68
46714;BME280;32445;51.376;10.874;2023-03-01T07:30:39;100633.19;;;-2.96;49.30
46714;BME280;32445;51.376;10.874;2023-03-01T07:33:40;100631.03;;;-2.88;49.30
46714;BME280;32445;51.376;10.874;2023-03-01T07:36:41;100623.41;;;-2.88;50.16
46714;BME280;32445;51.376;10.874;2023-03-01T07:39:43;100630.00;;;-2.91;51.09
46714;BME280;32445;51.376;10.874;2023-03-01T07:42:43;100623.34;;;-2.89;51.20
46714;BME280;32445;51.376;10.874;2023-03-01T07:45:43;100617.38;;;-2.90;52.08
46714;BME280;32445;51.376;10.874;2023-03-01T07:48:44;100619.84;;;-2.91;52.87
46714;BME280;32445;51.376;10.874;2023-03-01T07:51:44;100620.78;;;-2.89;53.14
46714;BME280;32445;51.376;10.874;2023-03-01T07:54:45;100619.31;;;-2.84;52.76
46714;BME280;32445;51.376;10.874;2023-03-01T07:57:45;100623.75;;;-2.80;53.39
46714;BME280;32445;51.376;10.874;2023-03-01T08:00:45;100621.28;;;-2.79;53.52
46714;BME280;32445;51.376;10.874;2023-03-01T08:03:46;100618.94;;;-2.74;53.38
46714;BME280;32445;51.376;10.874;2023-03-01T08:06:46;100614.16;;;-2.68;53.16
46714;BME280;32445;51.376;10.874;2023-03-01T08:09:47;100611.09;;;-2.61;52.56
46714;BME280;32445;51.376;10.874;2023-03-01T08:12:47;100620.72;;;-2.53;52.43
46714;BME280;32445;51.376;10.874;2023-03-01T08:15:51;100627.69;;;-2.49;52.88
46714;BME280;32445;51.376;10.874;2023-03-01T08:18:54;100618.50;;;-2.46;52.82
46714;BME280;32445;51.376;10.874;2023-03-01T08:21:56;100617.13;;;-2.39;52.83
46714;BME280;32445;51.376;10.874;2023-03-01T08:24:58;100608.00;;;-2.34;52.98
46714;BME280;32445;51.376;10.874;2023-03-01T08:27:58;100604.00;;;-2.29;53.31
46714;BME280;32445;51.376;10.874;2023-03-01T08:30:59;100606.66;;;-2.26;53.17
46714;BME280;32445;51.376;10.874;2023-03-01T08:34:01;100600.97;;;-2.20;53.15
46714;BME280;32445;51.376;10.874;2023-03-01T08:37:02;100602.13;;;-2.13;53.24
46714;BME280;32445;51.376;10.874;2023-03-01T08:40:02;100596.38;;;-2.09;53.72
46714;BME280;32445;51.376;10.874;2023-03-01T08:43:07;100594.91;;;-2.02;54.22
46714;BME280;32445;51.376;10.874;2023-03-01T08:46:08;100598.59;;;-1.96;54.85
46714;BME280;32445;51.376;10.874;2023-03-01T08:49:12;100600.59;;;-1.88;54.70
46714;BME280;32445;51.376;10.874;2023-03-01T08:52:13;100595.81;;;-1.81;54.90
46714;BME280;32445;51.376;10.874;2023-03-01T08:55:13;100600.34;;;-1.74;55.03
46714;BME280;32445;51.376;10.874;2023-03-01T08:58:16;100592.25;;;-1.65;54.57
46714;BME280;32445;51.376;10.874;2023-03-01T09:01:18;100584.91;;;-1.57;55.14
46714;BME280;32445;51.376;10.874;2023-03-01T09:04:18;100584.47;;;-1.47;54.83
46714;BME280;32445;51.376;10.874;2023-03-01T09:07:19;100580.63;;;-1.37;53.62
46714;BME280;32445;51.376;10.874;2023-03-01T09:10:28;100580.91;;;-1.29;54.21
46714;BME280;32445;51.376;10.874;2023-03-01T09:13:28;100580.44;;;-1.19;54.95
46714;BME280;32445;51.376;10.874;2023-03-01T09:16:31;100573.28;;;-1.07;55.23
46714;BME280;32445;51.376;10.874;2023-03-01T09:19:35;100576.31;;;-0.94;54.48
46714;BME280;32445;51.376;10.874;2023-03-01T09:22:36;100571.66;;;-0.82;54.88
46714;BME280;32445;51.376;10.874;2023-03-01T09:25:36;100575.53;;;-0.69;54.89
46714;BME280;32445;51.376;10.874;2023-03-01T09:28:36;100570.03;;;-0.57;55.15
46714;BME280;32445;51.376;10.874;2023-03-01T09:31:37;100573.75;;;-0.47;55.00
46714;BME280;32445;51.376;10.874;2023-03-01T09:34:38;100568.97;;;-0.38;55.49
46714;BME280;32445;51.376;10.874;2023-03-01T09:37:58;100561.94;;;-0.21;55.83
46714;BME280;32445;51.376;10.874;2023-03-01T09:41:00;100566.66;;;-0.06;55.83
46714;BME280;32445;51.376;10.874;2023-03-01T09:44:28;100561.88;;;0.03;55.77
46714;BME280;32445;51.376;10.874;2023-03-01T09:47:34;100549.69;;;0.20;55.86
46714;BME280;32445;51.376;10.874;2023-03-01T09:50:39;100547.81;;;0.42;56.09
46714;BME280;32445;51.376;10.874;2023-03-01T09:53:40;100543.38;;;0.63;56.12
46714;BME280;32445;51.376;10.874;2023-03-01T09:56:59;100549.00;;;0.80;55.13
46714;BME280;32445;51.376;10.874;2023-03-01T10:00:12;100547.19;;;1.05;54.86
46714;BME280;32445;51.376;10.874;2023-03-01T10:03:17;100548.81;;;1.32;55.04
46714;BME280;32445;51.376;10.874;2023-03-01T10:06:23;100545.13;;;1.54;54.06
46714;BME280;32445;51.376;10.874;2023-03-01T10:09:23;100544.00;;;1.76;53.64
46714;BME280;32445;51.376;10.874;2023-03-01T10:12:32;100539.50;;;1.99;53.79
46714;BME280;32445;51.376;10.874;2023-03-01T10:15:39;100538.44;;;2.26;53.27
46714;BME280;32445;51.376;10.874;2023-03-01T10:18:45;100543.31;;;2.52;52.47
46714;BME280;32445;51.376;10.874;2023-03-01T10:21:47;100537.06;;;2.77;52.39
46714;BME280;32445;51.376;10.874;2023-03-01T10:24:50;100533.38;;;3.04;51.84
46714;BME280;32445;51.376;10.874;2023-03-01T10:27:53;100529.56;;;3.27;51.29
46714;BME280;32445;51.376;10.874;2023-03-01T10:30:54;100526.63;;;3.53;51.46
46714;BME280;32445;51.376;10.874;2023-03-01T10:33:55;100511.63;;;3.75;50.44
46714;BME280;32445;51.376;10.874;2023-03-01T10:36:58;100520.69;;;4.05;50.64
46714;BME280;32445;51.376;10.874;2023-03-01T10:40:07;100507.41;;;4.30;49.84
46714;BME280;32445;51.376;10.874;2023-03-01T10:43:11;100521.44;;;4.53;49.40
46714;BME280;32445;51.376;10.874;2023-03-01T10:49:23;100522.94;;;4.99;49.05
46714;BME280;32445;51.376;10.874;2023-03-01T10:52:37;100514.63;;;5.19;48.25
46714;BME280;32445;51.376;10.874;2023-03-01T10:55:38;100516.63;;;5.45;48.25
46714;BME280;32445;51.376;10.874;2023-03-01T10:58:41;100513.41;;;5.66;47.99
46714;BME280;32445;51.376;10.874;2023-03-01T11:05:20;100501.81;;;6.08;46.73
46714;BME280;32445;51.376;10.874;2023-03-01T11:11:36;100486.63;;;6.50;46.73
46714;BME280;32445;51.376;10.874;2023-03-01T11:14:38;100475.59;;;6.71;46.10
46714;BME280;32445;51.376;10.874;2023-03-01T11:17:45;100480.88;;;6.96;45.61
46714;BME280;32445;51.376;10.874;2023-03-01T11:20:46;100480.09;;;7.15;45.11
46714;BME280;32445;51.376;10.874;2023-03-01T11:23:46;100475.00;;;7.38;45.11
46714;BME280;32445;51.376;10.874;2023-03-01T11:26:51;100475.03;;;7.58;44.72
46714;BME280;32445;51.376;10.874;2023-03-01T11:30:00;100473.31;;;7.76;43.91
46714;BME280;32445;51.376;10.874;2023-03-01T11:33:37;100480.25;;;7.94;43.86
46714;BME280;32445;51.376;10.874;2023-03-01T11:36:59;100465.56;;;8.19;43.81
46714;BME280;32445;51.376;10.874;2023-03-01T11:40:13;100469.00;;;8.43;43.87
46714;BME280;32445;51.376;10.874;2023-03-01T11:53:14;100468.78;;;9.18;42.14
46714;BME280;32445;51.376;10.874;2023-03-01T11:56:34;100460.03;;;9.37;42.16
46714;BME280;32445;51.376;10.874;2023-03-01T12:00:07;100463.34;;;9.60;42.67
46714;BME280;32445;51.376;10.874;2023-03-01T12:29:25;100429.00;;;11.09;41.35
46714;BME280;32445;51.376;10.874;2023-03-01T12:39:53;100415.44;;;11.49;39.72
46714;BME280;32445;51.376;10.874;2023-03-01T12:43:20;100416.94;;;11.64;40.15
46714;BME280;32445;51.376;10.874;2023-03-01T12:50:04;100414.69;;;11.97;40.16
46714;BME280;32445;51.376;10.874;2023-03-01T12:53:21;100406.69;;;12.09;39.21
46714;BME280;32445;51.376;10.874;2023-03-01T12:56:29;100409.84;;;12.25;38.90
46714;BME280;32445;51.376;10.874;2023-03-01T12:59:47;100411.47;;;12.33;38.61
46714;BME280;32445;51.376;10.874;2023-03-01T13:19:30;100375.34;;;13.00;38.14
46714;BME280;32445;51.376;10.874;2023-03-01T13:22:32;100376.75;;;13.15;40.49
46714;BME280;32445;51.376;10.874;2023-03-01T13:25:33;100382.66;;;13.23;38.96
46714;BME280;32445;51.376;10.874;2023-03-01T13:34:42;100371.91;;;13.39;36.78
46714;BME280;32445;51.376;10.874;2023-03-01T13:37:44;100364.75;;;13.47;36.19
46714;BME280;32445;51.376;10.874;2023-03-01T13:43:51;100366.28;;;13.56;34.83
46714;BME280;32445;51.376;10.874;2023-03-01T13:46:53;100355.72;;;13.60;35.89
46714;BME280;32445;51.376;10.874;2023-03-01T13:49:59;100349.38;;;13.71;36.46
46714;BME280;32445;51.376;10.874;2023-03-01T13:53:04;100344.72;;;13.82;36.08
46714;BME280;32445;51.376;10.874;2023-03-01T13:56:15;100337.53;;;13.92;35.38
46714;BME280;32445;51.376;10.874;2023-03-01T13:59:19;100336.38;;;14.02;36.61
46714;BME280;32445;51.376;10.874;2023-03-01T14:02:20;100339.78;;;14.06;35.65
46714;BME280;32445;51.376;10.874;2023-03-01T14:05:20;100331.03;;;14.07;35.84
46714;BME280;32445;51.376;10.874;2023-03-01T14:08:23;100331.75;;;14.12;35.52
46714;BME280;32445;51.376;10.874;2023-03-01T14:11:39;100331.66;;;14.15;34.10
46714;BME280;32445;51.376;10.874;2023-03-01T14:15:29;100334.97;;;14.22;35.30
46714;BME280;32445;51.376;10.874;2023-03-01T14:22:30;100331.09;;;14.35;34.70
46714;BME280;32445;51.376;10.874;2023-03-01T14:25:34;100317.06;;;14.39;34.68
46714;BME280;32445;51.376;10.874;2023-03-01T14:28:36;100328.34;;;14.40;34.56
46714;BME280;32445;51.376;10.874;2023-03-01T14:31:39;100317.81;;;14.44;34.60
46714;BME280;32445;51.376;10.874;2023-03-01T14:34:59;100317.72;;;14.47;33.64
46714;BME280;32445;51.376;10.874;2023-03-01T14:37:59;100314.84;;;14.55;34.36
46714;BME280;32445;51.376;10.874;2023-03-01T14:41:20;100313.13;;;14.54;33.95
46714;BME280;32445;51.376;10.874;2023-03-01T14:44:24;100314.75;;;14.58;34.46
46714;BME280;32445;51.376;10.874;2023-03-01T14:47:28;100315.69;;;14.57;33.27
46714;BME280;32445;51.376;10.874;2023-03-01T14:50:31;100300.91;;;14.56;33.86
46714;BME280;32445;51.376;10.874;2023-03-01T14:53:32;100314.75;;;14.58;34.55
46714;BME280;32445;51.376;10.874;2023-03-01T14:56:44;100303.41;;;14.59;34.10
46714;BME280;32445;51.376;10.874;2023-03-01T14:59:45;100298.13;;;14.62;34.79
46714;BME280;32445;51.376;10.874;2023-03-01T15:02:48;100293.75;;;14.63;34.00
46714;BME280;32445;51.376;10.874;2023-03-01T15:05:50;100284.25;;;14.60;32.95
46714;BME280;32445;51.376;10.874;2023-03-01T15:08:53;100290.28;;;14.62;33.06
46714;BME280;32445;51.376;10.874;2023-03-01T15:11:54;100287.63;;;14.64;33.92
46714;BME280;32445;51.376;10.874;2023-03-01T15:14:56;100290.13;;;14.67;34.33
46714;BME280;32445;51.376;10.874;2023-03-01T15:18:02;100291.91;;;14.66;33.53
46714;BME280;32445;51.376;10.874;2023-03-01T15:21:31;100287.63;;;14.64;32.92
46714;BME280;32445;51.376;10.874;2023-03-01T15:24:32;100288.41;;;14.67;33.00
46714;BME280;32445;51.376;10.874;2023-03-01T15:27:33;100292.69;;;14.70;36.50
46714;BME280;32445;51.376;10.874;2023-03-01T15:30:35;100292.69;;;14.70;34.73
46714;BME280;32445;51.376;10.874;2023-03-01T15:33:38;100292.75;;;14.67;33.56
46714;BME280;32445;51.376;10.874;2023-03-01T15:36:44;100295.38;;;14.67;33.30
46714;BME280;32445;51.376;10.874;2023-03-01T15:39:54;100293.72;;;14.64;33.03
46714;BME280;32445;51.376;10.874;2023-03-01T15:42:54;100292.00;;;14.63;34.06
46714;BME280;32445;51.376;10.874;2023-03-01T15:45:56;100291.19;;;14.60;33.74
46714;BME280;32445;51.376;10.874;2023-03-01T15:49:00;100290.44;;;14.56;32.78
46714;BME280;32445;51.376;10.874;2023-03-01T15:52:02;100295.88;;;14.50;33.27
46714;BME280;32445;51.376;10.874;2023-03-01T15:55:06;100298.69;;;14.42;32.67
46714;BME280;32445;51.376;10.874;2023-03-01T15:58:13;100291.97;;;14.33;32.16
46714;BME280;32445;51.376;10.874;2023-03-01T16:01:16;100282.44;;;14.32;33.32
46714;BME280;32445;51.376;10.874;2023-03-01T16:04:18;100286.91;;;14.29;33.25
46714;BME280;32445;51.376;10.874;2023-03-01T16:07:23;100287.94;;;14.23;32.75
46714;BME280;32445;51.376;10.874;2023-03-01T16:10:23;100288.06;;;14.18;33.83
46714;BME280;32445;51.376;10.874;2023-03-01T16:13:24;100296.06;;;14.12;32.83
46714;BME280;32445;51.376;10.874;2023-03-01T16:16:25;100287.50;;;14.07;32.96
46714;BME280;32445;51.376;10.874;2023-03-01T16:19:25;100293.75;;;14.01;33.65
46714;BME280;32445;51.376;10.874;2023-03-01T16:22:26;100292.22;;;13.94;33.85
46714;BME280;32445;51.376;10.874;2023-03-01T16:25:27;100293.28;;;13.87;33.43
46714;BME280;32445;51.376;10.874;2023-03-01T16:28:27;100286.56;;;13.78;32.75
46714;BME280;32445;51.376;10.874;2023-03-01T16:31:28;100290.25;;;13.71;33.66
46714;BME280;32445;51.376;10.874;2023-03-01T16:34:28;100287.91;;;13.60;33.75
46714;BME280;32445;51.376;10.874;2023-03-01T16:37:31;100280.34;;;13.49;33.28
46714;BME280;32445;51.376;10.874;2023-03-01T16:40:32;100286.69;;;13.39;33.81
46714;BME280;32445;51.376;10.874;2023-03-01T16:43:32;100287.78;;;13.29;33.96
46714;BME280;32445;51.376;10.874;2023-03-01T16:46:33;100283.72;;;13.17;33.31
46714;BME280;32445;51.376;10.874;2023-03-01T16:49:33;100290.13;;;13.04;34.06
46714;BME280;32445;51.376;10.874;2023-03-01T16:52:33;100288.66;;;12.92;34.00
46714;BME280;32445;51.376;10.874;2023-03-01T16:55:34;100292.50;;;12.77;34.40
46714;BME280;32445;51.376;10.874;2023-03-01T16:58:35;100299.72;;;12.64;34.24
46714;BME280;32445;51.376;10.874;2023-03-01T17:01:35;100297.44;;;12.49;34.12
46714;BME280;32445;51.376;10.874;2023-03-01T17:04:40;100298.63;;;12.34;34.06
46714;BME280;32445;51.376;10.874;2023-03-01T17:07:41;100310.19;;;12.19;33.92
46714;BME280;32445;51.376;10.874;2023-03-01T17:10:42;100310.50;;;12.03;34.46
46714;BME280;32445;51.376;10.874;2023-03-01T17:13:43;100310.78;;;11.88;34.22
46714;BME280;32445;51.376;10.874;2023-03-01T17:16:44;100304.13;;;11.71;34.38
46714;BME280;32445;51.376;10.874;2023-03-01T17:19:45;100300.06;;;11.56;34.92
46714;BME280;32445;51.376;10.874;2023-03-01T17:22:45;100299.47;;;11.40;34.38
46714;BME280;32445;51.376;10.874;2023-03-01T17:25:45;100310.97;;;11.25;34.15